createdAt,value
2022-09-06T00:01:12.410Z,41.02
2022-09-06T00:03:40.821Z,41.03
2022-09-06T00:06:15.551Z,41.13
2022-09-06T00:08:44.591Z,41.13
2022-09-06T00:11:12.161Z,41.19
2022-09-06T00:13:40.167Z,41.28
2022-09-06T00:16:14.797Z,41.33
2022-09-06T00:18:43.423Z,41.22
2022-09-06T00:21:18.362Z,41.35
2022-09-06T00:23:46.617Z,41.28
2022-09-06T00:26:15.582Z,41.49
2022-09-06T00:28:43.292Z,41.56
2022-09-06T00:31:19.871Z,41.58
2022-09-06T00:33:48.170Z,41.56
2022-09-06T00:36:16.476Z,41.71
2022-09-06T00:38:44.504Z,41.75
2022-09-06T00:41:15.629Z,41.84
2022-09-06T00:43:43.471Z,41.96
2022-09-06T00:46:23.747Z,42.08
2022-09-06T00:48:57.306Z,42.07
2022-09-06T00:51:27.505Z,42.31
2022-09-06T00:53:55.623Z,42.37
2022-09-06T00:56:24.022Z,42.33
2022-09-06T00:58:51.637Z,42.43
2022-09-06T01:01:19.201Z,42.45
2022-09-06T01:03:47.324Z,42.55
2022-09-06T01:06:21.876Z,42.61
2022-09-06T01:08:57.842Z,42.67
2022-09-06T01:11:41.304Z,42.92
2022-09-06T01:14:22.274Z,43.03
2022-09-06T01:17:21.757Z,43.02
2022-09-06T01:20:09.502Z,43.19
2022-09-06T01:23:06.882Z,43.11
2022-09-06T01:26:06.371Z,43.26
2022-09-06T01:28:37.770Z,43.29
2022-09-06T01:31:25.604Z,43.30
2022-09-06T01:34:26.049Z,43.35
2022-09-06T01:37:10.590Z,43.55
2022-09-06T01:39:41.476Z,43.65
2022-09-06T01:42:22.513Z,43.76
2022-09-06T01:45:01.056Z,43.83
2022-09-06T01:48:00.505Z,43.95
2022-09-06T01:50:57.080Z,44.07
2022-09-06T01:53:46.761Z,44.05
2022-09-06T01:56:23.358Z,44.18
2022-09-06T01:59:13.679Z,44.28
2022-09-06T02:02:06.291Z,44.34
2022-09-06T02:05:01.341Z,44.41
2022-09-06T02:07:31.285Z,44.47
2022-09-06T02:10:18.859Z,44.54
2022-09-06T02:12:49.929Z,44.50
2022-09-06T02:15:35.295Z,44.63
2022-09-06T02:18:11.871Z,44.82
2022-09-06T02:20:48.821Z,44.76
2022-09-06T02:23:18.357Z,44.79
2022-09-06T02:26:21.959Z,44.79
2022-09-06T02:28:49.939Z,44.86
2022-09-06T02:31:30.038Z,45.17
2022-09-06T02:33:58.464Z,45.28
2022-09-06T02:36:26.792Z,45.20
2022-09-06T02:38:54.906Z,45.20
2022-09-06T02:41:24.813Z,45.44
2022-09-06T02:43:52.288Z,45.40
2022-09-06T02:46:19.937Z,45.49
2022-09-06T02:48:47.439Z,45.48
2022-09-06T02:51:14.855Z,45.59
2022-09-06T02:53:43.023Z,45.59
2022-09-06T02:56:10.668Z,45.70
2022-09-06T02:58:38.302Z,45.59
2022-09-06T03:01:06.685Z,45.67
2022-09-06T03:03:34.561Z,45.77
2022-09-06T03:06:02.266Z,45.96
2022-09-06T03:08:33.767Z,45.98
2022-09-06T03:11:01.682Z,45.97
2022-09-06T03:13:29.267Z,46.09
2022-09-06T03:15:59.471Z,46.08
2022-09-06T03:18:29.780Z,46.10
2022-09-06T03:20:58.536Z,46.17
2022-09-06T03:23:28.162Z,46.28
2022-09-06T03:25:55.992Z,46.29
2022-09-06T03:28:23.697Z,46.44
2022-09-06T03:30:52.068Z,46.25
2022-09-06T03:33:21.445Z,46.29
2022-09-06T03:35:54.911Z,46.37
2022-09-06T03:38:23.654Z,46.57
2022-09-06T03:40:52.950Z,46.55
2022-09-06T03:43:22.951Z,46.57
2022-09-06T03:45:53.390Z,46.71
2022-09-06T03:48:23.205Z,46.66
2022-09-06T03:50:54.258Z,46.73
2022-09-06T03:53:23.669Z,46.78
2022-09-06T03:55:53.638Z,46.88
2022-09-06T03:58:23.214Z,46.76
2022-09-06T04:01:04.829Z,46.87
2022-09-06T04:03:33.363Z,46.95
2022-09-06T04:06:01.025Z,46.99
2022-09-06T04:08:29.216Z,47.11
2022-09-06T04:10:58.197Z,47.09
2022-09-06T04:13:28.163Z,47.21
2022-09-06T04:15:56.435Z,47.21
2022-09-06T04:18:24.755Z,47.35
2022-09-06T04:20:55.838Z,47.27
2022-09-06T04:23:25.629Z,47.25
2022-09-06T04:25:55.453Z,47.39
2022-09-06T04:28:24.474Z,47.36
2022-09-06T04:31:01.965Z,47.49
2022-09-06T04:33:34.270Z,47.53
2022-09-06T04:36:04.270Z,47.59
2022-09-06T04:38:39.244Z,47.45
2022-09-06T04:41:07.679Z,47.63
2022-09-06T04:43:35.777Z,47.58
2022-09-06T04:46:09.172Z,47.59
2022-09-06T04:48:36.879Z,47.68
2022-09-06T04:51:04.501Z,47.65
2022-09-06T04:53:31.986Z,47.75
2022-09-06T04:55:59.493Z,47.67
2022-09-06T04:58:26.966Z,47.70
2022-09-06T05:00:54.876Z,47.54
2022-09-06T05:03:22.413Z,47.72
2022-09-06T05:05:50.041Z,47.58
2022-09-06T05:08:17.742Z,47.64
2022-09-06T05:10:45.350Z,47.68
2022-09-06T05:13:12.826Z,47.67
2022-09-06T05:15:40.319Z,47.65
2022-09-06T05:18:07.754Z,47.79
2022-09-06T05:20:35.349Z,47.69
2022-09-06T05:23:02.854Z,47.84
2022-09-06T05:25:31.096Z,47.70
2022-09-06T05:27:58.569Z,47.86
2022-09-06T05:30:26.091Z,47.66
2022-09-06T05:32:53.937Z,47.62
2022-09-06T05:35:21.486Z,47.67
2022-09-06T05:37:49.021Z,47.55
2022-09-06T05:40:16.887Z,47.47
2022-09-06T05:42:44.401Z,47.40
2022-09-06T05:45:12.018Z,47.44
2022-09-06T05:47:39.512Z,47.67
2022-09-06T05:50:09.161Z,47.48
2022-09-06T05:52:38.108Z,47.47
2022-09-06T05:55:07.548Z,47.43
2022-09-06T05:57:38.826Z,47.51
2022-09-06T06:00:13.621Z,47.48
2022-09-06T06:02:48.204Z,47.37
2022-09-06T06:05:21.454Z,47.31
2022-09-06T06:07:49.465Z,47.36
2022-09-06T06:10:17.332Z,47.38
2022-09-06T06:12:44.845Z,47.41
2022-09-06T06:15:12.400Z,47.48
2022-09-06T06:17:40.206Z,47.21
2022-09-06T06:20:08.925Z,47.33
2022-09-06T06:22:36.485Z,47.34
2022-09-06T06:25:04.751Z,47.25
2022-09-06T06:27:34.786Z,47.17
2022-09-06T06:30:02.751Z,47.34
2022-09-06T06:32:30.500Z,47.03
2022-09-06T06:34:58.072Z,47.07
2022-09-06T06:37:25.737Z,46.94
2022-09-06T06:39:53.351Z,46.87
2022-09-06T06:42:21.094Z,47.00
2022-09-06T06:44:50.097Z,46.76
2022-09-06T06:47:17.554Z,46.87
2022-09-06T06:49:45.140Z,46.67
2022-09-06T06:52:12.617Z,46.60
2022-09-06T06:54:41.510Z,46.62
2022-09-06T06:57:09.347Z,46.64
2022-09-06T06:59:36.837Z,46.71
2022-09-06T07:02:04.538Z,46.58
2022-09-06T07:04:32.174Z,46.42
2022-09-06T07:12:36.145Z,46.28
2022-09-06T07:15:08.237Z,46.17
2022-09-06T07:17:41.787Z,46.31
2022-09-06T07:20:13.123Z,46.29
2022-09-06T07:22:44.736Z,46.22
2022-09-06T07:25:19.029Z,46.09
2022-09-06T07:28:05.679Z,46.11
2022-09-06T07:30:36.915Z,46.23
2022-09-06T07:33:07.949Z,46.08
2022-09-06T07:35:37.040Z,45.91
2022-09-06T07:38:04.703Z,45.76
2022-09-06T07:40:32.353Z,45.68
2022-09-06T07:43:00.193Z,45.48
2022-09-06T07:45:27.745Z,45.35
2022-09-06T07:47:59.360Z,45.45
2022-09-06T07:50:46.396Z,45.35
2022-09-06T07:53:21.577Z,45.26
2022-09-06T07:55:53.878Z,45.40
2022-09-06T07:58:21.458Z,45.22
2022-09-06T08:00:49.230Z,44.82
2022-09-06T08:03:16.818Z,44.83
2022-09-06T08:11:22.560Z,45.06
2022-09-06T08:13:52.707Z,44.80
2022-09-06T08:16:21.269Z,44.58
2022-09-06T08:18:54.839Z,44.22
2022-09-06T08:21:24.436Z,44.14
2022-09-06T08:24:04.399Z,43.89
2022-09-06T08:26:34.361Z,43.56
2022-09-06T08:29:07.251Z,43.59
2022-09-06T08:31:38.339Z,43.42
2022-09-06T08:34:06.230Z,43.28
2022-09-06T08:36:34.976Z,43.08
2022-09-06T08:39:06.109Z,43.08
2022-09-06T08:42:13.419Z,42.86
2022-09-06T08:44:56.328Z,42.58
2022-09-06T08:47:25.475Z,42.51
2022-09-06T08:50:02.463Z,42.30
2022-09-06T08:53:18.316Z,42.09
2022-09-06T08:55:59.604Z,41.92
2022-09-06T08:58:56.366Z,41.92
2022-09-06T09:01:27.729Z,41.56
2022-09-06T09:04:01.583Z,41.10
2022-09-06T09:06:30.863Z,41.05
2022-09-06T09:09:06.244Z,40.71
2022-09-06T09:11:36.194Z,40.68
2022-09-06T09:14:12.573Z,40.50
2022-09-06T09:16:40.134Z,40.22
2022-09-06T09:19:09.604Z,40.14
2022-09-06T09:21:40.033Z,39.74
2022-09-06T09:24:10.793Z,39.34
2022-09-06T09:26:56.834Z,39.20
2022-09-06T09:29:28.699Z,39.55
2022-09-06T09:31:57.999Z,39.10
2022-09-06T09:34:41.466Z,38.90
2022-09-06T09:40:36.295Z,38.31
2022-09-06T09:43:27.382Z,38.41
2022-09-06T09:46:12.020Z,38.11
2022-09-06T09:48:41.843Z,37.89
2022-09-06T09:51:26.273Z,37.87
2022-09-06T09:54:01.270Z,37.73
2022-09-06T09:56:32.673Z,37.57
2022-09-06T09:59:00.863Z,37.37
2022-09-06T10:01:35.790Z,37.18
2022-09-06T10:07:15.697Z,36.43
2022-09-06T10:09:47.166Z,36.52
2022-09-06T10:12:32.096Z,36.82
2022-09-06T10:15:02.470Z,36.44
2022-09-06T10:17:47.643Z,36.25
2022-09-06T10:20:16.351Z,36.12
2022-09-06T10:22:49.721Z,36.14
2022-09-06T10:25:49.976Z,35.86
2022-09-06T10:28:36.970Z,35.63
2022-09-06T10:31:07.809Z,36.07
2022-09-06T10:34:07.335Z,35.99
2022-09-06T10:36:36.543Z,35.70
2022-09-06T10:39:36.146Z,35.42
2022-09-06T10:42:28.399Z,34.79
2022-09-06T10:45:11.797Z,34.78
2022-09-06T10:47:58.254Z,35.27
2022-09-06T10:50:54.298Z,34.99
2022-09-06T10:53:21.745Z,34.86
2022-09-06T10:56:10.187Z,34.31
2022-09-06T11:01:45.628Z,34.76
2022-09-06T11:04:30.809Z,34.43
2022-09-06T11:07:04.576Z,34.17
2022-09-06T11:09:43.986Z,34.14
2022-09-06T11:12:27.516Z,33.89
2022-09-06T11:14:55.472Z,33.69
2022-09-06T11:17:35.431Z,33.44
2022-09-06T11:20:27.391Z,33.30
2022-09-06T11:23:11.126Z,32.90
2022-09-06T11:25:44.470Z,32.48
2022-09-06T11:28:18.319Z,31.71
2022-09-06T11:30:51.156Z,31.66
2022-09-06T11:33:24.940Z,31.52
2022-09-06T11:35:54.204Z,32.04
2022-09-06T11:38:27.211Z,31.63
2022-09-06T11:41:01.073Z,31.27
2022-09-06T11:43:46.774Z,30.88
2022-09-06T11:46:34.587Z,30.65
2022-09-06T11:49:04.155Z,30.44
2022-09-06T11:51:39.404Z,30.43
2022-09-06T11:54:22.897Z,30.06
2022-09-06T11:56:58.650Z,30.40
2022-09-06T11:59:48.160Z,29.99
2022-09-06T12:02:46.163Z,29.73
2022-09-06T12:05:23.382Z,29.29
2022-09-06T12:08:26.222Z,28.95
2022-09-06T12:11:04.001Z,28.69
2022-09-06T12:13:49.279Z,28.12
2022-09-06T12:16:18.554Z,27.89
2022-09-06T12:18:49.272Z,28.08
2022-09-06T12:21:36.373Z,27.87
2022-09-06T12:24:06.182Z,27.57
2022-09-06T12:26:55.669Z,27.42
2022-09-06T12:29:26.256Z,27.17
2022-09-06T12:31:57.365Z,26.64
2022-09-06T12:34:30.419Z,26.76
2022-09-06T12:37:01.643Z,26.44
2022-09-06T12:39:29.368Z,26.37
2022-09-06T12:42:07.933Z,26.06
2022-09-06T12:44:41.171Z,26.25
2022-09-06T12:47:20.927Z,25.54
2022-09-06T12:50:06.309Z,25.56
2022-09-06T12:52:33.869Z,25.46
2022-09-06T12:55:01.340Z,24.99
2022-09-06T12:57:29.624Z,24.74
2022-09-06T12:59:57.635Z,24.28
2022-09-06T13:02:44.156Z,24.29
2022-09-06T13:05:13.291Z,23.61
2022-09-06T13:07:45.599Z,23.05
2022-09-06T13:10:18.248Z,23.00
2022-09-06T13:12:50.421Z,22.83
2022-09-06T13:15:22.448Z,22.34
2022-09-06T13:17:50.467Z,22.23
2022-09-06T13:20:20.760Z,22.17
2022-09-06T13:22:50.789Z,21.66
2022-09-06T13:25:21.296Z,21.60
2022-09-06T13:27:51.347Z,21.76
2022-09-06T13:30:42.085Z,21.64
2022-09-06T13:33:24.404Z,21.34
2022-09-06T13:36:12.053Z,20.97
2022-09-06T13:38:39.999Z,20.92
2022-09-06T13:41:27.414Z,20.71
2022-09-06T13:43:58.254Z,20.37
2022-09-06T13:46:26.040Z,20.13
2022-09-06T13:48:54.438Z,19.66
2022-09-06T13:51:23.092Z,19.28
2022-09-06T13:53:51.189Z,19.05
2022-09-06T13:56:18.682Z,18.96
2022-09-06T13:58:46.136Z,18.74
2022-09-06T14:01:14.529Z,18.57
2022-09-06T14:03:43.724Z,18.93
2022-09-06T14:06:11.218Z,19.12
2022-09-06T14:09:03.424Z,18.88
2022-09-06T14:11:27.397Z,18.63
2022-09-06T14:13:54.950Z,18.50
2022-09-06T14:16:22.876Z,18.76
2022-09-06T14:18:51.962Z,18.65
2022-09-06T14:21:19.657Z,18.76
2022-09-06T14:23:52.072Z,19.05
2022-09-06T14:26:24.963Z,19.12
2022-09-06T14:28:52.510Z,19.27
2022-09-06T14:31:22.311Z,19.70
2022-09-06T14:33:49.956Z,19.83
2022-09-06T14:36:20.380Z,20.14
2022-09-06T14:38:48.624Z,20.24
2022-09-06T14:41:17.907Z,20.27
2022-09-06T14:43:50.277Z,19.92
2022-09-06T14:46:19.752Z,19.92
2022-09-06T14:48:47.432Z,19.51
2022-09-06T14:51:23.949Z,19.27
2022-09-06T14:53:57.971Z,19.17
2022-09-06T14:56:27.026Z,19.09
2022-09-06T14:58:57.160Z,19.00
2022-09-06T15:01:37.102Z,18.72
2022-09-06T15:04:09.585Z,18.79
2022-09-06T15:06:40.176Z,18.91
2022-09-06T15:09:08.349Z,18.91
2022-09-06T15:11:41.167Z,18.88
2022-09-06T15:14:13.787Z,18.49
2022-09-06T15:16:41.829Z,18.30
2022-09-06T15:19:10.136Z,17.90
2022-09-06T15:21:37.850Z,17.94
2022-09-06T15:24:11.597Z,17.39
2022-09-06T15:26:42.585Z,17.28
2022-09-06T15:29:15.257Z,17.43
2022-09-06T15:31:43.236Z,17.30
2022-09-06T15:34:13.003Z,17.28
2022-09-06T15:36:40.583Z,17.17
2022-09-06T15:39:08.380Z,17.23
2022-09-06T15:41:40.290Z,17.42
2022-09-06T15:44:14.427Z,16.97
2022-09-06T15:46:51.416Z,16.93
2022-09-06T15:49:28.136Z,16.75
2022-09-06T15:51:59.337Z,16.36
2022-09-06T15:54:44.664Z,16.35
2022-09-06T15:57:15.176Z,16.38
2022-09-06T15:59:43.369Z,16.23
2022-09-06T16:02:11.659Z,16.00
2022-09-06T16:04:40.075Z,15.87
2022-09-06T16:07:07.901Z,15.83
2022-09-06T16:09:35.398Z,15.78
2022-09-06T16:12:03.473Z,15.57
2022-09-06T16:14:31.359Z,15.51
2022-09-06T16:16:59.107Z,15.32
2022-09-06T16:19:27.199Z,15.31
2022-09-06T16:21:54.718Z,15.25
2022-09-06T16:24:22.982Z,15.06
2022-09-06T16:26:50.745Z,14.93
2022-09-06T16:29:19.115Z,14.94
2022-09-06T16:31:47.215Z,14.99
2022-09-06T16:34:15.234Z,14.97
2022-09-06T16:36:42.744Z,14.92
2022-09-06T16:39:10.920Z,14.76
2022-09-06T16:41:46.939Z,14.77
2022-09-06T16:44:17.523Z,15.08
2022-09-06T16:46:47.720Z,14.92
2022-09-06T16:49:17.398Z,14.78
2022-09-06T16:51:46.483Z,15.00
2022-09-06T16:54:15.342Z,15.10
2022-09-06T16:56:44.433Z,15.34
2022-09-06T16:59:15.192Z,15.38
2022-09-06T17:01:43.732Z,15.88
2022-09-06T17:04:12.728Z,16.00
2022-09-06T17:06:46.889Z,16.16
2022-09-06T17:09:19.211Z,16.58
2022-09-06T17:11:50.457Z,17.06
2022-09-06T17:14:18.958Z,17.31
2022-09-06T17:17:01.756Z,17.72
2022-09-06T17:19:29.733Z,18.18
2022-09-06T17:21:57.453Z,18.44
2022-09-06T17:24:26.789Z,18.91
2022-09-06T17:26:54.371Z,19.57
2022-09-06T17:29:21.927Z,20.16
2022-09-06T17:31:49.671Z,20.78
2022-09-06T17:34:17.307Z,21.38
2022-09-06T17:36:46.091Z,21.80
2022-09-06T17:39:20.913Z,21.99
2022-09-06T17:41:53.535Z,22.36
2022-09-06T17:44:25.468Z,22.72
2022-09-06T17:49:43.128Z,23.64
2022-09-06T17:52:11.330Z,24.25
2022-09-06T17:54:38.911Z,24.68
2022-09-06T17:57:06.836Z,25.04
2022-09-06T17:59:35.986Z,25.13
2022-09-06T18:02:05.083Z,25.80
2022-09-06T18:04:33.226Z,26.16
2022-09-06T18:07:01.333Z,26.68
2022-09-06T18:09:29.277Z,27.06
2022-09-06T18:11:58.430Z,27.39
2022-09-06T18:14:28.533Z,27.66
2022-09-06T18:16:56.468Z,28.00
2022-09-06T18:19:26.196Z,28.29
2022-09-06T18:21:55.569Z,28.51
2022-09-06T18:24:24.013Z,28.82
2022-09-06T18:26:51.869Z,29.18
2022-09-06T18:29:19.415Z,29.25
2022-09-06T18:31:47.657Z,29.65
2022-09-06T18:34:16.841Z,29.74
2022-09-06T18:36:44.455Z,29.85
2022-09-06T18:39:13.559Z,30.22
2022-09-06T18:41:57.122Z,30.28
2022-09-06T18:44:24.753Z,30.52
2022-09-06T18:46:56.368Z,30.82
2022-09-06T18:49:24.714Z,31.19
2022-09-06T18:51:52.186Z,31.39
2022-09-06T18:54:20.905Z,31.39
2022-09-06T18:56:49.964Z,31.54
2022-09-06T18:59:18.481Z,31.66
2022-09-06T19:01:46.513Z,32.01
2022-09-06T19:04:14.821Z,31.96
2022-09-06T19:06:44.803Z,32.03
2022-09-06T19:09:14.829Z,32.42
2022-09-06T19:11:45.410Z,32.61
2022-09-06T19:14:14.825Z,32.88
2022-09-06T19:16:43.189Z,33.04
2022-09-06T19:19:11.928Z,33.24
2022-09-06T19:21:42.286Z,33.39
2022-09-06T19:24:12.366Z,33.44
2022-09-06T19:26:43.970Z,33.62
2022-09-06T19:29:17.588Z,33.87
2022-09-06T19:31:47.268Z,34.11
2022-09-06T19:34:16.072Z,34.17
2022-09-06T19:36:45.083Z,34.31
2022-09-06T19:39:16.233Z,34.30
2022-09-06T19:41:47.082Z,34.79
2022-09-06T19:44:17.267Z,34.75
2022-09-06T19:46:46.965Z,34.80
2022-09-06T19:49:19.848Z,34.81
2022-09-06T19:51:48.725Z,34.98
2022-09-06T19:54:17.117Z,35.16
2022-09-06T19:56:45.980Z,35.21
2022-09-06T19:59:16.143Z,35.24
2022-09-06T20:01:46.764Z,35.36
2022-09-06T20:04:15.955Z,35.21
2022-09-06T20:06:43.923Z,35.28
2022-09-06T20:09:12.060Z,35.21
2022-09-06T20:11:41.914Z,35.17
2022-09-06T20:14:11.509Z,35.43
2022-09-06T20:16:41.800Z,35.43
2022-09-06T20:19:12.628Z,35.22
2022-09-06T20:21:40.211Z,35.44
2022-09-06T20:24:08.448Z,35.31
2022-09-06T20:26:35.941Z,35.24
2022-09-06T20:29:05.216Z,35.26
2022-09-06T20:31:34.357Z,35.29
2022-09-06T20:34:06.189Z,35.29
2022-09-06T20:36:34.550Z,35.53
2022-09-06T20:39:02.537Z,35.43
2022-09-06T20:41:30.325Z,35.60
2022-09-06T20:43:59.901Z,35.47
2022-09-06T20:46:30.912Z,35.49
2022-09-06T20:49:03.657Z,35.62
2022-09-06T20:51:33.470Z,35.65
2022-09-06T20:54:02.643Z,35.68
2022-09-06T20:56:37.466Z,35.97
2022-09-06T20:59:10.125Z,36.01
2022-09-06T21:01:41.353Z,36.17
2022-09-06T21:04:10.483Z,36.23
2022-09-06T21:06:39.656Z,36.40
2022-09-06T21:09:11.020Z,36.51
2022-09-06T21:11:38.754Z,36.56
2022-09-06T21:14:07.659Z,36.56
2022-09-06T21:16:36.547Z,36.76
2022-09-06T21:19:06.853Z,36.84
2022-09-06T21:21:34.854Z,37.02
2022-09-06T21:24:04.957Z,37.03
2022-09-06T21:26:32.514Z,37.03
2022-09-06T21:29:00.265Z,37.10
2022-09-06T21:31:31.564Z,37.09
2022-09-06T21:34:03.263Z,37.14
2022-09-06T21:36:35.069Z,37.27
2022-09-06T21:39:07.215Z,37.20
2022-09-06T21:41:36.179Z,37.42
2022-09-06T21:44:06.625Z,37.43
2022-09-06T21:46:36.973Z,37.42
2022-09-06T21:49:07.695Z,37.42
2022-09-06T21:51:37.504Z,37.46
2022-09-06T21:54:06.774Z,37.39
2022-09-06T21:56:36.480Z,37.48
2022-09-06T21:59:05.399Z,37.45
2022-09-06T22:01:36.014Z,37.54
2022-09-06T22:04:04.747Z,37.75
2022-09-06T22:06:34.267Z,37.54
2022-09-06T22:09:11.150Z,37.72
2022-09-06T22:11:41.749Z,37.76
2022-09-06T22:14:13.385Z,37.81
2022-09-06T22:16:42.147Z,37.80
2022-09-06T22:19:10.816Z,37.82
2022-09-06T22:21:39.340Z,37.80
2022-09-06T22:24:10.112Z,37.97
2022-09-06T22:26:40.176Z,38.07
2022-09-06T22:29:09.443Z,38.11
2022-09-06T22:31:37.671Z,38.03
2022-09-06T22:34:06.809Z,38.09
2022-09-06T22:36:35.767Z,38.26
2022-09-06T22:39:04.637Z,38.33
2022-09-06T22:41:34.118Z,38.31
2022-09-06T22:44:04.032Z,38.38
2022-09-06T22:46:31.924Z,38.49
2022-09-06T22:49:00.441Z,38.42
2022-09-06T22:51:27.955Z,38.57
2022-09-06T22:53:55.469Z,38.72
2022-09-06T22:56:23.059Z,38.70
2022-09-06T22:58:50.610Z,38.73
2022-09-06T23:01:18.291Z,38.76
2022-09-06T23:03:46.732Z,38.86
2022-09-06T23:06:14.275Z,38.91
2022-09-06T23:08:42.886Z,38.92
2022-09-06T23:11:13.447Z,39.06
2022-09-06T23:13:46.910Z,39.10
2022-09-06T23:16:17.498Z,39.16
2022-09-06T23:18:46.462Z,39.24
2022-09-06T23:21:17.629Z,39.33
2022-09-06T23:23:46.850Z,39.48
2022-09-06T23:26:17.727Z,39.38
2022-09-06T23:28:45.689Z,39.45
2022-09-06T23:31:15.303Z,39.61
2022-09-06T23:33:44.485Z,39.64
2022-09-06T23:36:15.003Z,39.69
2022-09-06T23:38:43.344Z,39.73
2022-09-06T23:41:12.369Z,39.78
2022-09-06T23:43:42.656Z,39.74
2022-09-06T23:46:12.895Z,39.86
2022-09-06T23:48:41.326Z,39.91
2022-09-06T23:51:09.704Z,39.93
2022-09-06T23:53:37.895Z,40.17
2022-09-06T23:56:06.944Z,40.15
2022-09-06T23:58:35.141Z,40.14
